sensor_id;sensor_type;location;lat;lon;timestamp;P1;durP1;ratioP1;P2;durP2;ratioP2
66886;SDS011;67239;51.680;5.976;2023-05-07T00:00:19;13.85;;;8.10;;
66886;SDS011;67239;51.680;5.976;2023-05-07T00:02:47;9.07;;;7.93;;
66886;SDS011;67239;51.680;5.976;2023-05-07T00:05:16;11.43;;;8.50;;
66886;SDS011;67239;51.680;5.976;2023-05-07T00:07:43;11.20;;;8.90;;
66886;SDS011;67239;51.680;5.976;2023-05-07T00:10:10;12.82;;;9.63;;
66886;SDS011;67239;51.680;5.976;2023-05-07T00:12:40;12.95;;;9.43;;
66886;SDS011;67239;51.680;5.976;2023-05-07T00:15:07;12.93;;;9.73;;
66886;SDS011;67239;51.680;5.976;2023-05-07T00:17:35;11.18;;;8.65;;
66886;SDS011;67239;51.680;5.976;2023-05-07T00:20:03;12.05;;;9.23;;
66886;SDS011;67239;51.680;5.976;2023-05-07T00:22:31;14.20;;;9.45;;
66886;SDS011;67239;51.680;5.976;2023-05-07T00:24:59;11.65;;;9.35;;
66886;SDS011;67239;51.680;5.976;2023-05-07T00:27:26;11.30;;;9.25;;
66886;SDS011;67239;51.680;5.976;2023-05-07T00:29:54;13.05;;;8.65;;
66886;SDS011;67239;51.680;5.976;2023-05-07T00:32:21;11.13;;;9.43;;
66886;SDS011;67239;51.680;5.976;2023-05-07T00:34:48;15.98;;;9.82;;
66886;SDS011;67239;51.680;5.976;2023-05-07T00:37:15;12.95;;;10.25;;
66886;SDS011;67239;51.680;5.976;2023-05-07T00:39:43;12.68;;;10.15;;
66886;SDS011;67239;51.680;5.976;2023-05-07T00:42:10;14.13;;;10.30;;
66886;SDS011;67239;51.680;5.976;2023-05-07T00:44:37;14.25;;;10.48;;
66886;SDS011;67239;51.680;5.976;2023-05-07T00:47:04;16.02;;;10.65;;
66886;SDS011;67239;51.680;5.976;2023-05-07T00:49:35;15.65;;;10.98;;
66886;SDS011;67239;51.680;5.976;2023-05-07T00:52:07;15.07;;;11.32;;
66886;SDS011;67239;51.680;5.976;2023-05-07T00:54:37;15.65;;;11.40;;
66886;SDS011;67239;51.680;5.976;2023-05-07T00:57:08;13.65;;;10.35;;
66886;SDS011;67239;51.680;5.976;2023-05-07T00:59:36;15.32;;;11.85;;
66886;SDS011;67239;51.680;5.976;2023-05-07T01:02:04;15.45;;;12.15;;
66886;SDS011;67239;51.680;5.976;2023-05-07T01:04:31;17.05;;;12.70;;
66886;SDS011;67239;51.680;5.976;2023-05-07T01:06:59;15.48;;;12.63;;
66886;SDS011;67239;51.680;5.976;2023-05-07T01:09:29;14.90;;;12.13;;
66886;SDS011;67239;51.680;5.976;2023-05-07T01:11:56;16.52;;;12.70;;
66886;SDS011;67239;51.680;5.976;2023-05-07T01:14:25;15.75;;;13.43;;
66886;SDS011;67239;51.680;5.976;2023-05-07T01:16:52;17.25;;;13.05;;
66886;SDS011;67239;51.680;5.976;2023-05-07T01:19:23;16.65;;;13.10;;
66886;SDS011;67239;51.680;5.976;2023-05-07T01:21:50;20.42;;;14.25;;
66886;SDS011;67239;51.680;5.976;2023-05-07T01:24:19;19.73;;;13.65;;
66886;SDS011;67239;51.680;5.976;2023-05-07T01:26:47;19.90;;;13.73;;
66886;SDS011;67239;51.680;5.976;2023-05-07T01:29:16;17.25;;;14.05;;
66886;SDS011;67239;51.680;5.976;2023-05-07T01:31:44;17.98;;;14.23;;
66886;SDS011;67239;51.680;5.976;2023-05-07T01:34:13;21.05;;;14.18;;
66886;SDS011;67239;51.680;5.976;2023-05-07T01:36:44;18.75;;;13.45;;
66886;SDS011;67239;51.680;5.976;2023-05-07T01:39:13;17.50;;;14.40;;
66886;SDS011;67239;51.680;5.976;2023-05-07T01:41:40;18.58;;;15.02;;
66886;SDS011;67239;51.680;5.976;2023-05-07T01:44:10;19.75;;;15.05;;
66886;SDS011;67239;51.680;5.976;2023-05-07T01:46:40;19.67;;;14.55;;
66886;SDS011;67239;51.680;5.976;2023-05-07T01:49:07;18.52;;;14.30;;
66886;SDS011;67239;51.680;5.976;2023-05-07T01:51:35;18.65;;;15.02;;
66886;SDS011;67239;51.680;5.976;2023-05-07T01:54:02;18.88;;;14.57;;
66886;SDS011;67239;51.680;5.976;2023-05-07T01:56:30;19.27;;;16.50;;
66886;SDS011;67239;51.680;5.976;2023-05-07T01:58:58;17.83;;;16.00;;
66886;SDS011;67239;51.680;5.976;2023-05-07T02:01:25;20.63;;;15.80;;
66886;SDS011;67239;51.680;5.976;2023-05-07T02:03:53;20.20;;;15.85;;
66886;SDS011;67239;51.680;5.976;2023-05-07T02:06:24;20.95;;;15.95;;
66886;SDS011;67239;51.680;5.976;2023-05-07T02:08:55;21.20;;;16.10;;
66886;SDS011;67239;51.680;5.976;2023-05-07T02:11:22;19.02;;;16.35;;
66886;SDS011;67239;51.680;5.976;2023-05-07T02:13:50;19.15;;;16.33;;
66886;SDS011;67239;51.680;5.976;2023-05-07T02:16:17;20.95;;;16.02;;
66886;SDS011;67239;51.680;5.976;2023-05-07T02:18:44;22.63;;;17.27;;
66886;SDS011;67239;51.680;5.976;2023-05-07T02:21:11;20.02;;;16.88;;
66886;SDS011;67239;51.680;5.976;2023-05-07T02:23:38;21.88;;;16.20;;
66886;SDS011;67239;51.680;5.976;2023-05-07T02:26:05;21.48;;;16.95;;
66886;SDS011;67239;51.680;5.976;2023-05-07T02:28:33;19.17;;;16.30;;
66886;SDS011;67239;51.680;5.976;2023-05-07T02:31:04;22.75;;;16.02;;
66886;SDS011;67239;51.680;5.976;2023-05-07T02:33:31;21.85;;;16.08;;
66886;SDS011;67239;51.680;5.976;2023-05-07T02:36:09;18.38;;;15.40;;
66886;SDS011;67239;51.680;5.976;2023-05-07T02:38:52;17.77;;;15.00;;
66886;SDS011;67239;51.680;5.976;2023-05-07T02:41:20;20.17;;;15.90;;
66886;SDS011;67239;51.680;5.976;2023-05-07T02:43:47;17.90;;;15.88;;
66886;SDS011;67239;51.680;5.976;2023-05-07T02:46:14;22.05;;;16.17;;
66886;SDS011;67239;51.680;5.976;2023-05-07T02:48:46;18.73;;;14.75;;
66886;SDS011;67239;51.680;5.976;2023-05-07T02:51:13;18.58;;;15.50;;
66886;SDS011;67239;51.680;5.976;2023-05-07T02:53:42;18.25;;;16.15;;
66886;SDS011;67239;51.680;5.976;2023-05-07T02:56:09;20.08;;;16.27;;
66886;SDS011;67239;51.680;5.976;2023-05-07T02:58:36;19.55;;;15.32;;
66886;SDS011;67239;51.680;5.976;2023-05-07T03:01:04;18.98;;;16.52;;
66886;SDS011;67239;51.680;5.976;2023-05-07T03:03:39;22.02;;;15.48;;
66886;SDS011;67239;51.680;5.976;2023-05-07T03:06:06;21.90;;;17.10;;
66886;SDS011;67239;51.680;5.976;2023-05-07T03:08:34;22.60;;;16.58;;
66886;SDS011;67239;51.680;5.976;2023-05-07T03:11:01;21.05;;;16.55;;
66886;SDS011;67239;51.680;5.976;2023-05-07T03:13:28;20.65;;;16.98;;
66886;SDS011;67239;51.680;5.976;2023-05-07T03:15:56;22.08;;;18.15;;
66886;SDS011;67239;51.680;5.976;2023-05-07T03:18:23;24.48;;;18.30;;
66886;SDS011;67239;51.680;5.976;2023-05-07T03:20:51;23.60;;;18.27;;
66886;SDS011;67239;51.680;5.976;2023-05-07T03:23:18;19.75;;;17.63;;
66886;SDS011;67239;51.680;5.976;2023-05-07T03:25:47;22.17;;;18.48;;
66886;SDS011;67239;51.680;5.976;2023-05-07T03:28:15;20.73;;;17.65;;
66886;SDS011;67239;51.680;5.976;2023-05-07T03:30:48;21.83;;;18.38;;
66886;SDS011;67239;51.680;5.976;2023-05-07T03:33:15;23.55;;;18.70;;
66886;SDS011;67239;51.680;5.976;2023-05-07T03:35:43;23.45;;;19.10;;
66886;SDS011;67239;51.680;5.976;2023-05-07T03:38:10;22.27;;;18.40;;
66886;SDS011;67239;51.680;5.976;2023-05-07T03:40:37;21.27;;;18.73;;
66886;SDS011;67239;51.680;5.976;2023-05-07T03:43:05;23.33;;;19.45;;
66886;SDS011;67239;51.680;5.976;2023-05-07T03:45:35;22.92;;;19.65;;
66886;SDS011;67239;51.680;5.976;2023-05-07T03:48:16;23.70;;;18.08;;
66886;SDS011;67239;51.680;5.976;2023-05-07T03:50:44;25.98;;;19.33;;
66886;SDS011;67239;51.680;5.976;2023-05-07T03:53:11;23.83;;;19.23;;
66886;SDS011;67239;51.680;5.976;2023-05-07T03:55:39;23.77;;;19.33;;
66886;SDS011;67239;51.680;5.976;2023-05-07T03:58:06;26.10;;;19.70;;
66886;SDS011;67239;51.680;5.976;2023-05-07T04:00:33;24.02;;;20.60;;
66886;SDS011;67239;51.680;5.976;2023-05-07T04:03:13;23.05;;;19.85;;
66886;SDS011;67239;51.680;5.976;2023-05-07T04:05:41;22.90;;;20.05;;
66886;SDS011;67239;51.680;5.976;2023-05-07T04:08:09;27.48;;;20.45;;
66886;SDS011;67239;51.680;5.976;2023-05-07T04:10:42;24.75;;;20.13;;
66886;SDS011;67239;51.680;5.976;2023-05-07T04:13:10;24.35;;;20.48;;
66886;SDS011;67239;51.680;5.976;2023-05-07T04:15:37;25.73;;;20.00;;
66886;SDS011;67239;51.680;5.976;2023-05-07T04:18:08;26.02;;;20.48;;
66886;SDS011;67239;51.680;5.976;2023-05-07T04:20:36;25.13;;;20.40;;
66886;SDS011;67239;51.680;5.976;2023-05-07T04:23:07;24.50;;;20.63;;
66886;SDS011;67239;51.680;5.976;2023-05-07T04:25:35;25.92;;;20.65;;
66886;SDS011;67239;51.680;5.976;2023-05-07T04:28:11;26.13;;;21.08;;
66886;SDS011;67239;51.680;5.976;2023-05-07T04:30:39;25.52;;;21.15;;
66886;SDS011;67239;51.680;5.976;2023-05-07T04:33:09;26.48;;;21.65;;
66886;SDS011;67239;51.680;5.976;2023-05-07T04:35:39;24.67;;;20.80;;
66886;SDS011;67239;51.680;5.976;2023-05-07T04:38:07;25.08;;;20.40;;
66886;SDS011;67239;51.680;5.976;2023-05-07T04:40:35;24.30;;;20.20;;
66886;SDS011;67239;51.680;5.976;2023-05-07T04:43:03;27.50;;;20.92;;
66886;SDS011;67239;51.680;5.976;2023-05-07T04:45:36;23.80;;;19.63;;
66886;SDS011;67239;51.680;5.976;2023-05-07T04:48:03;25.80;;;21.40;;
66886;SDS011;67239;51.680;5.976;2023-05-07T04:50:32;25.33;;;20.80;;
66886;SDS011;67239;51.680;5.976;2023-05-07T04:53:02;28.33;;;21.52;;
66886;SDS011;67239;51.680;5.976;2023-05-07T04:55:30;30.85;;;22.30;;
66886;SDS011;67239;51.680;5.976;2023-05-07T04:57:57;27.42;;;21.35;;
66886;SDS011;67239;51.680;5.976;2023-05-07T05:00:24;25.30;;;20.15;;
66886;SDS011;67239;51.680;5.976;2023-05-07T05:02:54;26.60;;;20.35;;
66886;SDS011;67239;51.680;5.976;2023-05-07T05:05:22;25.85;;;21.20;;
66886;SDS011;67239;51.680;5.976;2023-05-07T05:07:52;24.98;;;19.70;;
66886;SDS011;67239;51.680;5.976;2023-05-07T05:10:20;28.90;;;20.48;;
66886;SDS011;67239;51.680;5.976;2023-05-07T05:12:50;25.13;;;19.83;;
66886;SDS011;67239;51.680;5.976;2023-05-07T05:15:19;25.40;;;20.67;;
66886;SDS011;67239;51.680;5.976;2023-05-07T05:17:46;23.80;;;19.15;;
66886;SDS011;67239;51.680;5.976;2023-05-07T05:20:14;23.88;;;19.20;;
66886;SDS011;67239;51.680;5.976;2023-05-07T05:22:42;24.15;;;19.95;;
66886;SDS011;67239;51.680;5.976;2023-05-07T05:25:11;24.73;;;19.52;;
66886;SDS011;67239;51.680;5.976;2023-05-07T05:27:38;23.80;;;19.73;;
66886;SDS011;67239;51.680;5.976;2023-05-07T05:30:08;22.85;;;18.58;;
66886;SDS011;67239;51.680;5.976;2023-05-07T05:32:38;27.38;;;19.23;;
66886;SDS011;67239;51.680;5.976;2023-05-07T05:35:06;23.00;;;18.63;;
66886;SDS011;67239;51.680;5.976;2023-05-07T05:37:35;22.35;;;18.23;;
66886;SDS011;67239;51.680;5.976;2023-05-07T05:40:25;20.45;;;16.27;;
66886;SDS011;67239;51.680;5.976;2023-05-07T05:42:53;20.00;;;16.77;;
66886;SDS011;67239;51.680;5.976;2023-05-07T05:45:21;21.60;;;15.35;;
66886;SDS011;67239;51.680;5.976;2023-05-07T05:47:50;17.33;;;14.70;;
66886;SDS011;67239;51.680;5.976;2023-05-07T05:50:18;16.73;;;14.73;;
66886;SDS011;67239;51.680;5.976;2023-05-07T05:52:46;19.50;;;15.57;;
66886;SDS011;67239;51.680;5.976;2023-05-07T05:55:16;21.40;;;16.48;;
66886;SDS011;67239;51.680;5.976;2023-05-07T05:57:44;19.45;;;16.13;;
66886;SDS011;67239;51.680;5.976;2023-05-07T06:00:12;18.52;;;15.48;;
66886;SDS011;67239;51.680;5.976;2023-05-07T06:02:46;19.02;;;15.25;;
66886;SDS011;67239;51.680;5.976;2023-05-07T06:05:20;18.55;;;14.80;;
66886;SDS011;67239;51.680;5.976;2023-05-07T06:07:51;18.10;;;15.20;;
66886;SDS011;67239;51.680;5.976;2023-05-07T06:10:18;18.75;;;14.70;;
66886;SDS011;67239;51.680;5.976;2023-05-07T06:12:45;19.15;;;13.77;;
66886;SDS011;67239;51.680;5.976;2023-05-07T06:15:13;18.80;;;14.60;;
66886;SDS011;67239;51.680;5.976;2023-05-07T06:17:40;16.95;;;13.95;;
66886;SDS011;67239;51.680;5.976;2023-05-07T06:20:09;17.45;;;14.32;;
66886;SDS011;67239;51.680;5.976;2023-05-07T06:22:38;18.48;;;14.98;;
66886;SDS011;67239;51.680;5.976;2023-05-07T06:25:06;20.13;;;14.35;;
66886;SDS011;67239;51.680;5.976;2023-05-07T06:27:34;16.70;;;12.80;;
66886;SDS011;67239;51.680;5.976;2023-05-07T06:30:01;14.40;;;12.35;;
66886;SDS011;67239;51.680;5.976;2023-05-07T06:32:28;16.75;;;12.63;;
66886;SDS011;67239;51.680;5.976;2023-05-07T06:34:55;15.57;;;13.32;;
66886;SDS011;67239;51.680;5.976;2023-05-07T06:37:22;17.45;;;14.32;;
66886;SDS011;67239;51.680;5.976;2023-05-07T06:39:56;17.40;;;13.57;;
66886;SDS011;67239;51.680;5.976;2023-05-07T06:42:26;17.20;;;13.70;;
66886;SDS011;67239;51.680;5.976;2023-05-07T06:44:57;15.93;;;13.75;;
66886;SDS011;67239;51.680;5.976;2023-05-07T06:47:29;16.13;;;12.73;;
66886;SDS011;67239;51.680;5.976;2023-05-07T06:49:56;14.95;;;12.10;;
66886;SDS011;67239;51.680;5.976;2023-05-07T06:52:26;15.25;;;12.10;;
66886;SDS011;67239;51.680;5.976;2023-05-07T06:54:54;14.65;;;11.60;;
66886;SDS011;67239;51.680;5.976;2023-05-07T06:57:23;16.30;;;11.65;;
66886;SDS011;67239;51.680;5.976;2023-05-07T06:59:51;12.80;;;11.43;;
66886;SDS011;67239;51.680;5.976;2023-05-07T07:02:19;14.32;;;12.23;;
66886;SDS011;67239;51.680;5.976;2023-05-07T07:04:48;14.70;;;10.93;;
66886;SDS011;67239;51.680;5.976;2023-05-07T07:07:15;12.20;;;10.40;;
66886;SDS011;67239;51.680;5.976;2023-05-07T07:09:45;12.88;;;10.45;;
66886;SDS011;67239;51.680;5.976;2023-05-07T07:12:15;14.38;;;10.38;;
66886;SDS011;67239;51.680;5.976;2023-05-07T07:14:49;13.80;;;11.02;;
66886;SDS011;67239;51.680;5.976;2023-05-07T07:17:16;12.82;;;10.00;;
66886;SDS011;67239;51.680;5.976;2023-05-07T07:19:43;12.63;;;10.23;;
66886;SDS011;67239;51.680;5.976;2023-05-07T07:22:10;17.30;;;10.40;;
66886;SDS011;67239;51.680;5.976;2023-05-07T07:24:38;12.93;;;10.15;;
66886;SDS011;67239;51.680;5.976;2023-05-07T07:27:07;13.25;;;10.05;;
66886;SDS011;67239;51.680;5.976;2023-05-07T07:29:34;13.13;;;9.48;;
66886;SDS011;67239;51.680;5.976;2023-05-07T07:32:02;12.43;;;9.82;;
66886;SDS011;67239;51.680;5.976;2023-05-07T07:34:31;11.40;;;9.23;;
66886;SDS011;67239;51.680;5.976;2023-05-07T07:36:59;17.27;;;10.00;;
66886;SDS011;67239;51.680;5.976;2023-05-07T07:39:35;10.75;;;9.43;;
66886;SDS011;67239;51.680;5.976;2023-05-07T07:42:05;13.45;;;9.18;;
66886;SDS011;67239;51.680;5.976;2023-05-07T07:44:32;9.65;;;8.05;;
66886;SDS011;67239;51.680;5.976;2023-05-07T07:47:05;12.20;;;7.95;;
66886;SDS011;67239;51.680;5.976;2023-05-07T07:49:32;12.25;;;8.50;;
66886;SDS011;67239;51.680;5.976;2023-05-07T07:52:03;11.75;;;8.18;;
66886;SDS011;67239;51.680;5.976;2023-05-07T07:54:32;11.85;;;7.80;;
66886;SDS011;67239;51.680;5.976;2023-05-07T07:56:59;10.07;;;7.95;;
66886;SDS011;67239;51.680;5.976;2023-05-07T07:59:33;22.85;;;8.73;;
66886;SDS011;67239;51.680;5.976;2023-05-07T08:02:00;12.55;;;8.68;;
66886;SDS011;67239;51.680;5.976;2023-05-07T08:04:29;14.43;;;8.50;;
66886;SDS011;67239;51.680;5.976;2023-05-07T08:07:00;15.27;;;9.20;;
66886;SDS011;67239;51.680;5.976;2023-05-07T08:09:29;10.85;;;7.93;;
66886;SDS011;67239;51.680;5.976;2023-05-07T08:11:58;9.45;;;7.85;;
66886;SDS011;67239;51.680;5.976;2023-05-07T08:14:26;10.98;;;7.97;;
66886;SDS011;67239;51.680;5.976;2023-05-07T08:17:00;10.23;;;7.65;;
66886;SDS011;67239;51.680;5.976;2023-05-07T08:19:31;8.73;;;7.40;;
66886;SDS011;67239;51.680;5.976;2023-05-07T08:22:02;9.35;;;7.88;;
66886;SDS011;67239;51.680;5.976;2023-05-07T08:24:31;9.65;;;7.25;;
66886;SDS011;67239;51.680;5.976;2023-05-07T08:26:58;11.90;;;7.97;;
66886;SDS011;67239;51.680;5.976;2023-05-07T08:29:25;11.57;;;8.52;;
66886;SDS011;67239;51.680;5.976;2023-05-07T08:31:56;10.55;;;7.95;;
66886;SDS011;67239;51.680;5.976;2023-05-07T08:34:23;10.90;;;8.10;;
66886;SDS011;67239;51.680;5.976;2023-05-07T08:36:52;10.27;;;7.95;;
66886;SDS011;67239;51.680;5.976;2023-05-07T08:39:22;9.45;;;7.40;;
66886;SDS011;67239;51.680;5.976;2023-05-07T08:41:52;9.82;;;7.75;;
66886;SDS011;67239;51.680;5.976;2023-05-07T08:44:25;10.55;;;7.50;;
66886;SDS011;67239;51.680;5.976;2023-05-07T08:46:57;9.38;;;7.22;;
66886;SDS011;67239;51.680;5.976;2023-05-07T08:49:28;8.45;;;6.95;;
66886;SDS011;67239;51.680;5.976;2023-05-07T08:51:56;8.70;;;6.90;;
66886;SDS011;67239;51.680;5.976;2023-05-07T08:54:24;8.32;;;7.20;;
66886;SDS011;67239;51.680;5.976;2023-05-07T08:56:53;9.50;;;6.78;;
66886;SDS011;67239;51.680;5.976;2023-05-07T08:59:21;8.55;;;7.00;;
66886;SDS011;67239;51.680;5.976;2023-05-07T09:01:48;10.40;;;6.80;;
66886;SDS011;67239;51.680;5.976;2023-05-07T09:04:16;9.20;;;7.00;;
66886;SDS011;67239;51.680;5.976;2023-05-07T09:06:43;9.13;;;6.45;;
66886;SDS011;67239;51.680;5.976;2023-05-07T09:09:16;7.10;;;6.18;;
66886;SDS011;67239;51.680;5.976;2023-05-07T09:11:45;10.10;;;6.63;;
66886;SDS011;67239;51.680;5.976;2023-05-07T09:14:15;10.80;;;6.35;;
66886;SDS011;67239;51.680;5.976;2023-05-07T09:16:44;10.00;;;6.40;;
66886;SDS011;67239;51.680;5.976;2023-05-07T09:19:13;8.38;;;6.70;;
66886;SDS011;67239;51.680;5.976;2023-05-07T09:21:43;7.85;;;6.18;;
66886;SDS011;67239;51.680;5.976;2023-05-07T09:24:14;9.38;;;6.70;;
66886;SDS011;67239;51.680;5.976;2023-05-07T09:26:43;9.70;;;6.40;;
66886;SDS011;67239;51.680;5.976;2023-05-07T09:29:11;7.68;;;5.43;;
66886;SDS011;67239;51.680;5.976;2023-05-07T09:31:39;7.88;;;5.95;;
66886;SDS011;67239;51.680;5.976;2023-05-07T09:34:09;8.55;;;5.80;;
66886;SDS011;67239;51.680;5.976;2023-05-07T09:36:39;8.07;;;5.65;;
66886;SDS011;67239;51.680;5.976;2023-05-07T09:39:06;8.65;;;5.90;;
66886;SDS011;67239;51.680;5.976;2023-05-07T09:41:42;8.48;;;5.63;;
66886;SDS011;67239;51.680;5.976;2023-05-07T09:44:34;8.23;;;6.40;;
66886;SDS011;67239;51.680;5.976;2023-05-07T09:47:07;8.60;;;5.32;;
66886;SDS011;67239;51.680;5.976;2023-05-07T09:49:40;6.95;;;4.78;;
66886;SDS011;67239;51.680;5.976;2023-05-07T09:52:18;5.57;;;4.80;;
66886;SDS011;67239;51.680;5.976;2023-05-07T09:54:50;5.82;;;4.78;;
66886;SDS011;67239;51.680;5.976;2023-05-07T09:57:22;7.15;;;4.93;;
66886;SDS011;67239;51.680;5.976;2023-05-07T09:59:55;6.35;;;4.93;;
66886;SDS011;67239;51.680;5.976;2023-05-07T10:02:26;8.43;;;5.45;;
66886;SDS011;67239;51.680;5.976;2023-05-07T10:04:58;6.50;;;4.80;;
66886;SDS011;67239;51.680;5.976;2023-05-07T10:07:30;5.57;;;4.55;;
66886;SDS011;67239;51.680;5.976;2023-05-07T10:10:04;7.30;;;5.03;;
66886;SDS011;67239;51.680;5.976;2023-05-07T10:12:37;9.90;;;5.03;;
66886;SDS011;67239;51.680;5.976;2023-05-07T10:15:12;7.57;;;5.28;;
66886;SDS011;67239;51.680;5.976;2023-05-07T10:17:44;8.10;;;5.40;;
66886;SDS011;67239;51.680;5.976;2023-05-07T10:20:12;6.68;;;5.00;;
66886;SDS011;67239;51.680;5.976;2023-05-07T10:22:43;7.57;;;4.53;;
66886;SDS011;67239;51.680;5.976;2023-05-07T10:25:28;8.32;;;5.07;;
66886;SDS011;67239;51.680;5.976;2023-05-07T10:28:06;7.57;;;4.35;;
66886;SDS011;67239;51.680;5.976;2023-05-07T10:31:03;8.50;;;5.20;;
66886;SDS011;67239;51.680;5.976;2023-05-07T10:33:44;6.97;;;4.38;;
66886;SDS011;67239;51.680;5.976;2023-05-07T10:36:17;8.25;;;4.40;;
66886;SDS011;67239;51.680;5.976;2023-05-07T10:38:46;7.32;;;4.20;;
66886;SDS011;67239;51.680;5.976;2023-05-07T10:41:15;5.93;;;4.40;;
66886;SDS011;67239;51.680;5.976;2023-05-07T10:43:46;4.55;;;3.42;;
66886;SDS011;67239;51.680;5.976;2023-05-07T10:46:22;5.85;;;3.92;;
66886;SDS011;67239;51.680;5.976;2023-05-07T10:49:07;7.13;;;4.38;;
66886;SDS011;67239;51.680;5.976;2023-05-07T10:52:11;6.05;;;4.13;;
66886;SDS011;67239;51.680;5.976;2023-05-07T11:04:43;5.00;;;3.40;;
66886;SDS011;67239;51.680;5.976;2023-05-07T11:07:24;7.00;;;3.72;;
66886;SDS011;67239;51.680;5.976;2023-05-07T11:10:01;6.57;;;3.65;;
66886;SDS011;67239;51.680;5.976;2023-05-07T11:12:54;4.97;;;3.47;;
66886;SDS011;67239;51.680;5.976;2023-05-07T11:15:36;4.28;;;2.95;;
66886;SDS011;67239;51.680;5.976;2023-05-07T11:18:15;6.05;;;3.45;;
66886;SDS011;67239;51.680;5.976;2023-05-07T11:20:50;6.28;;;3.15;;
66886;SDS011;67239;51.680;5.976;2023-05-07T11:26:10;7.22;;;3.33;;
66886;SDS011;67239;51.680;5.976;2023-05-07T11:28:39;5.95;;;3.03;;
66886;SDS011;67239;51.680;5.976;2023-05-07T11:31:10;3.47;;;3.00;;
66886;SDS011;67239;51.680;5.976;2023-05-07T11:33:39;3.97;;;3.03;;
66886;SDS011;67239;51.680;5.976;2023-05-07T11:36:11;5.28;;;2.90;;
66886;SDS011;67239;51.680;5.976;2023-05-07T11:38:44;5.90;;;3.00;;
66886;SDS011;67239;51.680;5.976;2023-05-07T11:41:11;4.95;;;2.90;;
66886;SDS011;67239;51.680;5.976;2023-05-07T11:43:52;5.25;;;2.28;;
66886;SDS011;67239;51.680;5.976;2023-05-07T11:46:27;5.50;;;2.10;;
66886;SDS011;67239;51.680;5.976;2023-05-07T11:48:55;5.50;;;2.17;;
66886;SDS011;67239;51.680;5.976;2023-05-07T11:51:24;5.60;;;2.70;;
66886;SDS011;67239;51.680;5.976;2023-05-07T11:53:52;4.95;;;2.80;;
66886;SDS011;67239;51.680;5.976;2023-05-07T11:56:20;4.13;;;2.60;;
66886;SDS011;67239;51.680;5.976;2023-05-07T11:58:47;4.32;;;2.80;;
66886;SDS011;67239;51.680;5.976;2023-05-07T12:01:16;3.42;;;2.35;;
66886;SDS011;67239;51.680;5.976;2023-05-07T12:03:43;5.78;;;2.70;;
66886;SDS011;67239;51.680;5.976;2023-05-07T12:06:14;4.68;;;2.50;;
66886;SDS011;67239;51.680;5.976;2023-05-07T12:08:43;6.70;;;2.60;;
66886;SDS011;67239;51.680;5.976;2023-05-07T12:11:23;3.88;;;2.50;;
66886;SDS011;67239;51.680;5.976;2023-05-07T12:13:53;6.25;;;2.67;;
66886;SDS011;67239;51.680;5.976;2023-05-07T12:16:25;4.10;;;2.40;;
66886;SDS011;67239;51.680;5.976;2023-05-07T12:18:53;3.92;;;2.03;;
66886;SDS011;67239;51.680;5.976;2023-05-07T12:21:22;4.10;;;1.88;;
66886;SDS011;67239;51.680;5.976;2023-05-07T12:23:50;4.82;;;2.00;;
66886;SDS011;67239;51.680;5.976;2023-05-07T12:26:19;5.18;;;2.10;;
66886;SDS011;67239;51.680;5.976;2023-05-07T12:28:49;2.90;;;1.65;;
66886;SDS011;67239;51.680;5.976;2023-05-07T12:31:16;2.20;;;1.80;;
66886;SDS011;67239;51.680;5.976;2023-05-07T12:33:44;3.75;;;2.00;;
66886;SDS011;67239;51.680;5.976;2023-05-07T12:36:12;5.03;;;1.92;;
66886;SDS011;67239;51.680;5.976;2023-05-07T12:38:40;3.03;;;1.95;;
66886;SDS011;67239;51.680;5.976;2023-05-07T12:41:08;3.40;;;1.92;;
66886;SDS011;67239;51.680;5.976;2023-05-07T12:43:39;4.18;;;1.90;;
66886;SDS011;67239;51.680;5.976;2023-05-07T12:46:07;3.92;;;1.88;;
66886;SDS011;67239;51.680;5.976;2023-05-07T12:48:38;3.15;;;1.67;;
66886;SDS011;67239;51.680;5.976;2023-05-07T12:51:12;4.65;;;2.17;;
66886;SDS011;67239;51.680;5.976;2023-05-07T12:53:40;2.78;;;1.65;;
66886;SDS011;67239;51.680;5.976;2023-05-07T12:56:10;3.85;;;1.50;;
66886;SDS011;67239;51.680;5.976;2023-05-07T12:58:37;2.92;;;1.50;;
66886;SDS011;67239;51.680;5.976;2023-05-07T13:01:05;3.38;;;1.70;;
66886;SDS011;67239;51.680;5.976;2023-05-07T13:03:36;3.83;;;1.38;;
66886;SDS011;67239;51.680;5.976;2023-05-07T13:06:06;3.42;;;1.40;;
66886;SDS011;67239;51.680;5.976;2023-05-07T13:08:42;3.70;;;1.55;;
66886;SDS011;67239;51.680;5.976;2023-05-07T13:11:12;2.45;;;1.50;;
66886;SDS011;67239;51.680;5.976;2023-05-07T13:13:40;4.18;;;1.77;;
66886;SDS011;67239;51.680;5.976;2023-05-07T13:16:09;4.82;;;2.00;;
66886;SDS011;67239;51.680;5.976;2023-05-07T13:18:38;5.70;;;1.70;;
66886;SDS011;67239;51.680;5.976;2023-05-07T13:21:07;3.22;;;1.58;;
66886;SDS011;67239;51.680;5.976;2023-05-07T13:23:34;5.90;;;1.75;;
66886;SDS011;67239;51.680;5.976;2023-05-07T13:26:01;9.90;;;5.93;;
66886;SDS011;67239;51.680;5.976;2023-05-07T13:28:37;3.80;;;1.98;;
66886;SDS011;67239;51.680;5.976;2023-05-07T13:31:04;5.07;;;2.08;;
66886;SDS011;67239;51.680;5.976;2023-05-07T13:33:31;5.82;;;1.70;;
66886;SDS011;67239;51.680;5.976;2023-05-07T13:35:58;4.75;;;2.00;;
66886;SDS011;67239;51.680;5.976;2023-05-07T13:38:27;3.72;;;1.65;;
66886;SDS011;67239;51.680;5.976;2023-05-07T13:40:54;6.68;;;1.90;;
66886;SDS011;67239;51.680;5.976;2023-05-07T13:43:21;6.00;;;2.17;;
66886;SDS011;67239;51.680;5.976;2023-05-07T13:45:48;3.03;;;2.05;;
66886;SDS011;67239;51.680;5.976;2023-05-07T13:48:15;3.78;;;2.05;;
66886;SDS011;67239;51.680;5.976;2023-05-07T13:50:42;2.72;;;2.08;;
66886;SDS011;67239;51.680;5.976;2023-05-07T13:53:09;4.53;;;2.17;;
66886;SDS011;67239;51.680;5.976;2023-05-07T13:55:36;3.92;;;2.20;;
66886;SDS011;67239;51.680;5.976;2023-05-07T13:58:03;6.80;;;2.22;;
66886;SDS011;67239;51.680;5.976;2023-05-07T14:00:32;4.47;;;2.20;;
66886;SDS011;67239;51.680;5.976;2023-05-07T14:03:00;3.17;;;2.40;;
66886;SDS011;67239;51.680;5.976;2023-05-07T14:05:27;4.32;;;2.47;;
66886;SDS011;67239;51.680;5.976;2023-05-07T14:07:55;5.20;;;2.00;;
66886;SDS011;67239;51.680;5.976;2023-05-07T14:10:24;4.55;;;2.55;;
66886;SDS011;67239;51.680;5.976;2023-05-07T14:12:51;3.75;;;2.78;;
66886;SDS011;67239;51.680;5.976;2023-05-07T14:15:19;3.75;;;2.40;;
66886;SDS011;67239;51.680;5.976;2023-05-07T14:17:46;6.35;;;2.70;;
66886;SDS011;67239;51.680;5.976;2023-05-07T14:20:14;3.22;;;2.55;;
66886;SDS011;67239;51.680;5.976;2023-05-07T14:22:41;2.20;;;1.30;;
66886;SDS011;67239;51.680;5.976;2023-05-07T14:25:08;1.60;;;1.00;;
66886;SDS011;67239;51.680;5.976;2023-05-07T14:27:40;2.17;;;1.10;;
66886;SDS011;67239;51.680;5.976;2023-05-07T14:30:07;1.45;;;0.90;;
66886;SDS011;67239;51.680;5.976;2023-05-07T14:32:35;1.60;;;1.10;;
66886;SDS011;67239;51.680;5.976;2023-05-07T14:35:02;3.20;;;1.15;;
66886;SDS011;67239;51.680;5.976;2023-05-07T14:37:30;2.50;;;1.30;;
66886;SDS011;67239;51.680;5.976;2023-05-07T14:39:57;2.42;;;1.40;;
66886;SDS011;67239;51.680;5.976;2023-05-07T14:42:25;3.03;;;1.30;;
66886;SDS011;67239;51.680;5.976;2023-05-07T14:44:52;1.70;;;1.30;;
66886;SDS011;67239;51.680;5.976;2023-05-07T14:47:19;6.93;;;1.70;;
66886;SDS011;67239;51.680;5.976;2023-05-07T14:49:46;3.90;;;1.33;;
66886;SDS011;67239;51.680;5.976;2023-05-07T14:52:13;5.57;;;1.20;;
66886;SDS011;67239;51.680;5.976;2023-05-07T14:54:40;5.18;;;1.60;;
66886;SDS011;67239;51.680;5.976;2023-05-07T14:57:09;4.95;;;1.50;;
66886;SDS011;67239;51.680;5.976;2023-05-07T14:59:39;5.15;;;1.45;;